sensor_id;sensor_type;location;lat;lon;timestamp;pressure;altitude;pressure_sealevel;temperature;humidity
71770;BME280;66386;52.122;5.420;2024-01-30T00:02:16;102664.00;;;5.16;100.00
71770;BME280;66386;52.122;5.420;2024-01-30T00:04:42;102667.41;;;5.17;100.00
71770;BME280;66386;52.122;5.420;2024-01-30T00:07:09;102670.84;;;5.17;100.00
71770;BME280;66386;52.122;5.420;2024-01-30T00:09:36;102669.09;;;5.15;100.00
71770;BME280;66386;52.122;5.420;2024-01-30T00:12:03;102667.34;;;5.12;100.00
71770;BME280;66386;52.122;5.420;2024-01-30T00:14:30;102663.06;;;5.10;100.00
71770;BME280;66386;52.122;5.420;2024-01-30T00:16:57;102670.75;;;5.11;100.00
71770;BME280;66386;52.122;5.420;2024-01-30T00:19:24;102669.03;;;5.10;100.00
71770;BME280;66386;52.122;5.420;2024-01-30T00:21:51;102669.81;;;5.07;100.00
71770;BME280;66386;52.122;5.420;2024-01-30T00:24:18;102672.38;;;5.07;100.00
71770;BME280;66386;52.122;5.420;2024-01-30T00:26:44;102668.94;;;5.04;100.00
71770;BME280;66386;52.122;5.420;2024-01-30T00:29:11;102663.84;;;5.04;100.00
71770;BME280;66386;52.122;5.420;2024-01-30T00:31:38;102670.59;;;5.03;100.00
71770;BME280;66386;52.122;5.420;2024-01-30T00:34:07;102669.75;;;5.03;100.00
71770;BME280;66386;52.122;5.420;2024-01-30T00:36:34;102673.16;;;5.03;100.00
71770;BME280;66386;52.122;5.420;2024-01-30T00:39:01;102663.78;;;5.01;100.00
71770;BME280;66386;52.122;5.420;2024-01-30T00:41:28;102660.38;;;5.00;100.00
71770;BME280;66386;52.122;5.420;2024-01-30T00:43:54;102656.09;;;4.99;100.00
71770;BME280;66386;52.122;5.420;2024-01-30T00:46:21;102659.50;;;4.98;100.00
71770;BME280;66386;52.122;5.420;2024-01-30T00:48:48;102660.34;;;4.99;100.00
71770;BME280;66386;52.122;5.420;2024-01-30T00:51:15;102656.94;;;4.97;100.00
71770;BME280;66386;52.122;5.420;2024-01-30T00:53:41;102656.88;;;4.94;100.00
71770;BME280;66386;52.122;5.420;2024-01-30T00:56:08;102658.56;;;4.95;100.00
71770;BME280;66386;52.122;5.420;2024-01-30T00:58:34;102661.97;;;4.94;100.00
71770;BME280;66386;52.122;5.420;2024-01-30T01:01:01;102662.84;;;4.96;100.00
71770;BME280;66386;52.122;5.420;2024-01-30T01:03:28;102652.66;;;4.96;100.00
71770;BME280;66386;52.122;5.420;2024-01-30T01:05:56;102657.75;;;4.96;100.00
71770;BME280;66386;52.122;5.420;2024-01-30T01:08:22;102663.66;;;4.93;100.00
71770;BME280;66386;52.122;5.420;2024-01-30T01:10:49;102656.88;;;4.92;100.00
71770;BME280;66386;52.122;5.420;2024-01-30T01:13:15;102653.44;;;4.92;100.00
71770;BME280;66386;52.122;5.420;2024-01-30T01:15:42;102653.44;;;4.92;100.00
71770;BME280;66386;52.122;5.420;2024-01-30T01:18:09;102656.88;;;4.92;100.00
71770;BME280;66386;52.122;5.420;2024-01-30T01:20:35;102646.69;;;4.94;100.00
71770;BME280;66386;52.122;5.420;2024-01-30T01:23:03;102643.34;;;4.98;100.00
71770;BME280;66386;52.122;5.420;2024-01-30T01:25:30;102642.53;;;5.00;100.00
71770;BME280;66386;52.122;5.420;2024-01-30T01:27:57;102634.88;;;5.00;100.00
71770;BME280;66386;52.122;5.420;2024-01-30T01:30:23;102618.78;;;5.01;100.00
71770;BME280;66386;52.122;5.420;2024-01-30T01:32:52;102619.66;;;5.05;100.00
71770;BME280;66386;52.122;5.420;2024-01-30T01:35:24;102623.03;;;5.02;100.00
71770;BME280;66386;52.122;5.420;2024-01-30T01:37:54;102620.41;;;4.98;100.00
71770;BME280;66386;52.122;5.420;2024-01-30T01:40:27;102628.94;;;5.00;100.00
71770;BME280;66386;52.122;5.420;2024-01-30T01:42:56;102624.72;;;5.02;100.00
71770;BME280;66386;52.122;5.420;2024-01-30T01:45:23;102625.59;;;5.04;100.00
71770;BME280;66386;52.122;5.420;2024-01-30T01:47:53;102628.97;;;5.03;100.00
71770;BME280;66386;52.122;5.420;2024-01-30T01:50:21;102622.25;;;5.08;100.00
71770;BME280;66386;52.122;5.420;2024-01-30T01:52:49;102631.66;;;5.12;100.00
71770;BME280;66386;52.122;5.420;2024-01-30T01:55:18;102630.81;;;5.12;100.00
71770;BME280;66386;52.122;5.420;2024-01-30T01:57:48;102631.63;;;5.11;100.00
71770;BME280;66386;52.122;5.420;2024-01-30T02:00:16;102626.53;;;5.09;100.00
71770;BME280;66386;52.122;5.420;2024-01-30T02:02:46;102621.38;;;5.06;100.00
71770;BME280;66386;52.122;5.420;2024-01-30T02:05:14;102624.72;;;5.02;100.00
71770;BME280;66386;52.122;5.420;2024-01-30T02:07:41;102624.72;;;5.03;100.00
71770;BME280;66386;52.122;5.420;2024-01-30T02:10:08;102628.22;;;5.09;100.00
71770;BME280;66386;52.122;5.420;2024-01-30T02:12:36;102620.56;;;5.07;100.00
71770;BME280;66386;52.122;5.420;2024-01-30T02:15:03;102614.56;;;5.06;100.00
71770;BME280;66386;52.122;5.420;2024-01-30T02:17:31;102614.53;;;5.03;100.00
71770;BME280;66386;52.122;5.420;2024-01-30T02:19:58;102616.25;;;5.03;100.00
71770;BME280;66386;52.122;5.420;2024-01-30T02:22:25;102619.63;;;5.02;100.00
71770;BME280;66386;52.122;5.420;2024-01-30T02:24:52;102614.53;;;5.02;100.00
71770;BME280;66386;52.122;5.420;2024-01-30T02:27:18;102616.25;;;5.03;100.00
71770;BME280;66386;52.122;5.420;2024-01-30T02:29:45;102619.69;;;5.06;100.00
71770;BME280;66386;52.122;5.420;2024-01-30T02:32:12;102625.66;;;5.07;100.00
71770;BME280;66386;52.122;5.420;2024-01-30T02:34:38;102623.97;;;5.09;100.00
71770;BME280;66386;52.122;5.420;2024-01-30T02:39:37;102621.41;;;5.07;100.00
71770;BME280;66386;52.122;5.420;2024-01-30T02:42:04;102623.97;;;5.09;100.00
71770;BME280;66386;52.122;5.420;2024-01-30T02:44:31;102620.63;;;5.12;100.00
71770;BME280;66386;52.122;5.420;2024-01-30T02:46:58;102622.31;;;5.11;100.00
71770;BME280;66386;52.122;5.420;2024-01-30T02:49:24;102619.78;;;5.11;100.00
71770;BME280;66386;52.122;5.420;2024-01-30T02:51:52;102612.13;;;5.11;100.00
71770;BME280;66386;52.122;5.420;2024-01-30T02:54:18;102606.16;;;5.12;100.00
71770;BME280;66386;52.122;5.420;2024-01-30T02:56:45;102601.84;;;5.08;100.00
71770;BME280;66386;52.122;5.420;2024-01-30T02:59:12;102606.91;;;5.05;100.00
71770;BME280;66386;52.122;5.420;2024-01-30T03:01:44;102598.41;;;5.03;100.00
71770;BME280;66386;52.122;5.420;2024-01-30T03:04:11;102603.50;;;5.03;100.00
71770;BME280;66386;52.122;5.420;2024-01-30T03:06:38;102598.41;;;5.03;100.00
71770;BME280;66386;52.122;5.420;2024-01-30T03:09:05;102602.66;;;5.02;100.00
71770;BME280;66386;52.122;5.420;2024-01-30T03:11:32;102600.13;;;5.04;100.00
71770;BME280;66386;52.122;5.420;2024-01-30T03:13:58;102599.25;;;5.03;100.00
71770;BME280;66386;52.122;5.420;2024-01-30T03:16:25;102581.44;;;5.05;100.00
71770;BME280;66386;52.122;5.420;2024-01-30T03:18:51;102577.22;;;5.07;100.00
71770;BME280;66386;52.122;5.420;2024-01-30T03:21:18;102570.38;;;5.04;100.00
71770;BME280;66386;52.122;5.420;2024-01-30T03:23:45;102574.66;;;5.04;100.00
71770;BME280;66386;52.122;5.420;2024-01-30T03:26:11;102572.09;;;5.04;100.00
71770;BME280;66386;52.122;5.420;2024-01-30T03:28:39;102575.53;;;5.07;100.00
71770;BME280;66386;52.122;5.420;2024-01-30T03:31:05;102579.81;;;5.10;100.00
71770;BME280;66386;52.122;5.420;2024-01-30T03:33:32;102587.47;;;5.12;100.00
71770;BME280;66386;52.122;5.420;2024-01-30T03:36:03;102579.06;;;5.16;100.00
71770;BME280;66386;52.122;5.420;2024-01-30T03:38:29;102583.28;;;5.17;100.00
71770;BME280;66386;52.122;5.420;2024-01-30T03:40:56;102574.81;;;5.18;100.00
71770;BME280;66386;52.122;5.420;2024-01-30T03:43:22;102556.16;;;5.19;100.00
71770;BME280;66386;52.122;5.420;2024-01-30T03:45:49;102568.91;;;5.20;100.00
71770;BME280;66386;52.122;5.420;2024-01-30T03:48:15;102565.56;;;5.23;100.00
71770;BME280;66386;52.122;5.420;2024-01-30T03:50:42;102564.72;;;5.25;100.00
71770;BME280;66386;52.122;5.420;2024-01-30T03:53:08;102564.78;;;5.29;100.00
71770;BME280;66386;52.122;5.420;2024-01-30T03:55:35;102556.31;;;5.33;100.00
71770;BME280;66386;52.122;5.420;2024-01-30T03:58:02;102553.78;;;5.34;100.00
71770;BME280;66386;52.122;5.420;2024-01-30T04:00:28;102553.78;;;5.36;100.00
71770;BME280;66386;52.122;5.420;2024-01-30T04:02:55;102558.06;;;5.35;100.00
71770;BME280;66386;52.122;5.420;2024-01-30T04:05:22;102565.72;;;5.38;100.00
71770;BME280;66386;52.122;5.420;2024-01-30T04:07:48;102562.38;;;5.41;100.00
71770;BME280;66386;52.122;5.420;2024-01-30T04:10:15;102564.13;;;5.44;100.00
71770;BME280;66386;52.122;5.420;2024-01-30T04:12:41;102574.38;;;5.48;100.00
71770;BME280;66386;52.122;5.420;2024-01-30T04:15:08;102571.84;;;5.50;100.00
71770;BME280;66386;52.122;5.420;2024-01-30T04:17:35;102570.16;;;5.52;100.00
71770;BME280;66386;52.122;5.420;2024-01-30T04:20:02;102579.56;;;5.56;100.00
71770;BME280;66386;52.122;5.420;2024-01-30T04:22:29;102570.28;;;5.63;100.00
71770;BME280;66386;52.122;5.420;2024-01-30T04:24:56;102568.59;;;5.65;100.00
71770;BME280;66386;52.122;5.420;2024-01-30T04:27:22;102563.53;;;5.68;100.00
71770;BME280;66386;52.122;5.420;2024-01-30T04:29:49;102561.88;;;5.71;100.00
71770;BME280;66386;52.122;5.420;2024-01-30T04:32:15;102549.97;;;5.72;100.00
71770;BME280;66386;52.122;5.420;2024-01-30T04:34:42;102550.00;;;5.75;100.00
71770;BME280;66386;52.122;5.420;2024-01-30T04:37:09;102547.47;;;5.75;100.00
71770;BME280;66386;52.122;5.420;2024-01-30T04:39:35;102544.91;;;5.75;100.00
71770;BME280;66386;52.122;5.420;2024-01-30T04:42:03;102535.56;;;5.74;100.00
71770;BME280;66386;52.122;5.420;2024-01-30T04:44:34;102542.34;;;5.73;100.00
71770;BME280;66386;52.122;5.420;2024-01-30T04:47:01;102516.84;;;5.75;100.00
71770;BME280;66386;52.122;5.420;2024-01-30T04:49:28;102522.78;;;5.72;100.00
71770;BME280;66386;52.122;5.420;2024-01-30T04:51:55;102533.84;;;5.73;100.00
71770;BME280;66386;52.122;5.420;2024-01-30T04:54:23;102544.88;;;5.73;100.00
71770;BME280;66386;52.122;5.420;2024-01-30T04:56:49;102544.91;;;5.75;100.00
71770;BME280;66386;52.122;5.420;2024-01-30T04:59:16;102530.50;;;5.80;100.00
71770;BME280;66386;52.122;5.420;2024-01-30T05:01:43;102545.00;;;5.83;100.00
71770;BME280;66386;52.122;5.420;2024-01-30T05:04:09;102536.47;;;5.82;100.00
71770;BME280;66386;52.122;5.420;2024-01-30T05:06:42;102538.19;;;5.83;100.00
71770;BME280;66386;52.122;5.420;2024-01-30T05:09:09;102539.91;;;5.84;100.00
71770;BME280;66386;52.122;5.420;2024-01-30T05:11:40;102539.03;;;5.84;100.00
71770;BME280;66386;52.122;5.420;2024-01-30T05:14:07;102540.75;;;5.85;100.00
71770;BME280;66386;52.122;5.420;2024-01-30T05:16:35;102537.41;;;5.89;100.00
71770;BME280;66386;52.122;5.420;2024-01-30T05:19:01;102543.41;;;5.94;100.00
71770;BME280;66386;52.122;5.420;2024-01-30T05:21:29;102543.47;;;5.97;100.00
71770;BME280;66386;52.122;5.420;2024-01-30T05:23:55;102531.56;;;5.98;100.00
71770;BME280;66386;52.122;5.420;2024-01-30T05:26:23;102535.88;;;6.02;100.00
71770;BME280;66386;52.122;5.420;2024-01-30T05:28:49;102524.81;;;6.06;100.00
71770;BME280;66386;52.122;5.420;2024-01-30T05:31:16;102525.72;;;6.11;100.00
71770;BME280;66386;52.122;5.420;2024-01-30T05:33:42;102515.56;;;6.16;100.00
71770;BME280;66386;52.122;5.420;2024-01-30T05:36:12;102512.19;;;6.18;100.00
71770;BME280;66386;52.122;5.420;2024-01-30T05:38:39;102512.19;;;6.18;100.00
71770;BME280;66386;52.122;5.420;2024-01-30T05:41:06;102519.84;;;6.17;100.00
71770;BME280;66386;52.122;5.420;2024-01-30T05:43:32;102522.38;;;6.15;100.00
71770;BME280;66386;52.122;5.420;2024-01-30T05:45:59;102533.44;;;6.16;100.00
71770;BME280;66386;52.122;5.420;2024-01-30T05:48:25;102530.03;;;6.14;100.00
71770;BME280;66386;52.122;5.420;2024-01-30T05:50:52;102515.53;;;6.14;100.00
71770;BME280;66386;52.122;5.420;2024-01-30T05:53:19;102518.09;;;6.16;100.00
71770;BME280;66386;52.122;5.420;2024-01-30T05:55:45;102520.66;;;6.14;100.00
71770;BME280;66386;52.122;5.420;2024-01-30T05:58:12;102522.34;;;6.12;100.00
71770;BME280;66386;52.122;5.420;2024-01-30T06:00:39;102535.13;;;6.12;100.00
71770;BME280;66386;52.122;5.420;2024-01-30T06:03:05;102523.22;;;6.16;100.00
71770;BME280;66386;52.122;5.420;2024-01-30T06:05:32;102531.78;;;6.19;100.00
71770;BME280;66386;52.122;5.420;2024-01-30T06:07:59;102535.16;;;6.20;100.00
71770;BME280;66386;52.122;5.420;2024-01-30T06:10:25;102537.72;;;6.20;100.00
71770;BME280;66386;52.122;5.420;2024-01-30T06:12:52;102536.03;;;6.22;100.00
71770;BME280;66386;52.122;5.420;2024-01-30T06:15:19;102532.66;;;6.24;100.00
71770;BME280;66386;52.122;5.420;2024-01-30T06:17:45;102536.06;;;6.25;100.00
71770;BME280;66386;52.122;5.420;2024-01-30T06:20:12;102528.44;;;6.28;100.00
71770;BME280;66386;52.122;5.420;2024-01-30T06:22:38;102537.81;;;6.31;100.00
71770;BME280;66386;52.122;5.420;2024-01-30T06:25:05;102533.59;;;6.33;100.00
71770;BME280;66386;52.122;5.420;2024-01-30T06:27:32;102520.84;;;6.36;100.00
71770;BME280;66386;52.122;5.420;2024-01-30T06:29:58;102522.56;;;6.37;100.00
71770;BME280;66386;52.122;5.420;2024-01-30T06:32:25;102540.44;;;6.37;100.00
71770;BME280;66386;52.122;5.420;2024-01-30T06:34:53;102540.44;;;6.37;100.00
71770;BME280;66386;52.122;5.420;2024-01-30T06:37:20;102537.91;;;6.40;100.00
71770;BME280;66386;52.122;5.420;2024-01-30T06:39:48;102544.72;;;6.42;100.00
71770;BME280;66386;52.122;5.420;2024-01-30T06:42:14;102542.16;;;6.41;100.00
71770;BME280;66386;52.122;5.420;2024-01-30T06:44:41;102542.13;;;6.39;100.00
71770;BME280;66386;52.122;5.420;2024-01-30T06:47:07;102524.25;;;6.38;100.00
71770;BME280;66386;52.122;5.420;2024-01-30T06:49:34;102550.66;;;6.38;100.00
71770;BME280;66386;52.122;5.420;2024-01-30T06:52:01;102553.22;;;6.38;100.00
71770;BME280;66386;52.122;5.420;2024-01-30T06:54:28;102538.72;;;6.39;100.00
71770;BME280;66386;52.122;5.420;2024-01-30T06:56:54;102543.00;;;6.40;100.00
71770;BME280;66386;52.122;5.420;2024-01-30T06:59:21;102546.41;;;6.39;100.00
71770;BME280;66386;52.122;5.420;2024-01-30T07:01:47;102548.97;;;6.40;100.00
71770;BME280;66386;52.122;5.420;2024-01-30T07:04:14;102544.69;;;6.39;100.00
71770;BME280;66386;52.122;5.420;2024-01-30T07:06:41;102548.97;;;6.40;100.00
71770;BME280;66386;52.122;5.420;2024-01-30T07:09:08;102554.91;;;6.41;100.00
71770;BME280;66386;52.122;5.420;2024-01-30T07:11:37;102553.25;;;6.43;100.00
71770;BME280;66386;52.122;5.420;2024-01-30T07:14:03;102545.59;;;6.43;100.00
71770;BME280;66386;52.122;5.420;2024-01-30T07:16:31;102552.41;;;6.45;100.00
71770;BME280;66386;52.122;5.420;2024-01-30T07:18:57;102555.00;;;6.47;100.00
71770;BME280;66386;52.122;5.420;2024-01-30T07:21:24;102553.28;;;6.51;100.00
71770;BME280;66386;52.122;5.420;2024-01-30T07:23:54;102552.44;;;6.49;100.00
71770;BME280;66386;52.122;5.420;2024-01-30T07:26:21;102563.50;;;6.51;100.00
71770;BME280;66386;52.122;5.420;2024-01-30T07:28:49;102562.69;;;6.55;100.00
71770;BME280;66386;52.122;5.420;2024-01-30T07:31:16;102568.66;;;6.55;100.00
71770;BME280;66386;52.122;5.420;2024-01-30T07:33:43;102569.53;;;6.56;100.00
71770;BME280;66386;52.122;5.420;2024-01-30T07:36:10;102572.09;;;6.59;100.00
71770;BME280;66386;52.122;5.420;2024-01-30T07:38:37;102571.28;;;6.63;100.00
71770;BME280;66386;52.122;5.420;2024-01-30T07:41:03;102573.88;;;6.68;100.00
71770;BME280;66386;52.122;5.420;2024-01-30T07:43:30;102572.19;;;6.71;100.00
71770;BME280;66386;52.122;5.420;2024-01-30T07:45:57;102573.06;;;6.75;100.00
71770;BME280;66386;52.122;5.420;2024-01-30T07:48:23;102578.22;;;6.78;100.00
71770;BME280;66386;52.122;5.420;2024-01-30T07:50:50;102574.78;;;6.79;100.00
71770;BME280;66386;52.122;5.420;2024-01-30T07:53:16;102585.06;;;6.82;100.00
71770;BME280;66386;52.122;5.420;2024-01-30T07:55:43;102587.63;;;6.85;100.00
71770;BME280;66386;52.122;5.420;2024-01-30T07:58:13;102581.69;;;6.89;100.00
71770;BME280;66386;52.122;5.420;2024-01-30T08:00:39;102588.50;;;6.92;100.00
71770;BME280;66386;52.122;5.420;2024-01-30T08:03:06;102588.50;;;6.93;100.00
71770;BME280;66386;52.122;5.420;2024-01-30T08:05:32;102597.91;;;6.97;100.00
71770;BME280;66386;52.122;5.420;2024-01-30T08:07:59;102595.41;;;7.04;100.00
71770;BME280;66386;52.122;5.420;2024-01-30T08:10:26;102595.44;;;7.07;100.00
71770;BME280;66386;52.122;5.420;2024-01-30T08:12:53;102599.72;;;7.14;100.00
71770;BME280;66386;52.122;5.420;2024-01-30T08:15:19;102595.50;;;7.21;100.00
71770;BME280;66386;52.122;5.420;2024-01-30T08:17:46;102589.56;;;7.25;100.00
71770;BME280;66386;52.122;5.420;2024-01-30T08:20:12;102587.03;;;7.29;100.00
71770;BME280;66386;52.122;5.420;2024-01-30T08:22:40;102587.03;;;7.34;100.00
71770;BME280;66386;52.122;5.420;2024-01-30T08:25:07;102585.38;;;7.36;100.00
71770;BME280;66386;52.122;5.420;2024-01-30T08:27:34;102576.84;;;7.39;100.00
71770;BME280;66386;52.122;5.420;2024-01-30T08:30:02;102591.34;;;7.43;100.00
71770;BME280;66386;52.122;5.420;2024-01-30T08:34:59;102591.44;;;7.57;100.00
71770;BME280;66386;52.122;5.420;2024-01-30T08:37:26;102588.88;;;7.60;100.00
71770;BME280;66386;52.122;5.420;2024-01-30T08:39:53;102588.03;;;7.64;100.00
71770;BME280;66386;52.122;5.420;2024-01-30T08:42:20;102588.91;;;7.75;100.00
71770;BME280;66386;52.122;5.420;2024-01-30T08:44:49;102590.66;;;7.85;100.00
71770;BME280;66386;52.122;5.420;2024-01-30T08:47:17;102586.41;;;7.91;100.00
71770;BME280;66386;52.122;5.420;2024-01-30T08:49:45;102584.72;;;8.00;100.00
71770;BME280;66386;52.122;5.420;2024-01-30T08:52:12;102576.22;;;8.06;100.00
71770;BME280;66386;52.122;5.420;2024-01-30T08:54:38;102590.69;;;8.10;100.00
71770;BME280;66386;52.122;5.420;2024-01-30T08:57:05;102589.88;;;8.19;100.00
71770;BME280;66386;52.122;5.420;2024-01-30T08:59:31;102590.75;;;8.29;100.00
71770;BME280;66386;52.122;5.420;2024-01-30T09:01:58;102593.28;;;8.36;100.00
71770;BME280;66386;52.122;5.420;2024-01-30T09:04:37;102592.47;;;8.48;100.00
71770;BME280;66386;52.122;5.420;2024-01-30T09:07:04;102593.34;;;8.58;100.00
71770;BME280;66386;52.122;5.420;2024-01-30T09:09:37;102588.19;;;8.66;100.00
71770;BME280;66386;52.122;5.420;2024-01-30T09:12:03;102589.94;;;8.78;100.00
71770;BME280;66386;52.122;5.420;2024-01-30T09:14:33;102589.88;;;8.91;100.00
71770;BME280;66386;52.122;5.420;2024-01-30T09:17:00;102589.00;;;9.06;100.00
71770;BME280;66386;52.122;5.420;2024-01-30T09:19:26;102594.97;;;9.19;100.00
71770;BME280;66386;52.122;5.420;2024-01-30T09:21:53;102597.50;;;9.27;100.00
71770;BME280;66386;52.122;5.420;2024-01-30T09:24:19;102602.63;;;9.29;100.00
71770;BME280;66386;52.122;5.420;2024-01-30T09:26:46;102602.63;;;9.25;100.00
71770;BME280;66386;52.122;5.420;2024-01-30T09:29:13;102604.34;;;9.23;100.00
71770;BME280;66386;52.122;5.420;2024-01-30T09:31:45;102612.06;;;9.25;100.00
71770;BME280;66386;52.122;5.420;2024-01-30T09:34:12;102609.50;;;9.22;100.00
71770;BME280;66386;52.122;5.420;2024-01-30T09:36:39;102600.06;;;9.22;100.00
71770;BME280;66386;52.122;5.420;2024-01-30T09:39:06;102604.38;;;9.22;100.00
71770;BME280;66386;52.122;5.420;2024-01-30T09:41:43;102610.34;;;9.25;100.00
71770;BME280;66386;52.122;5.420;2024-01-30T09:44:12;102602.66;;;9.22;100.00
71770;BME280;66386;52.122;5.420;2024-01-30T09:46:40;102616.34;;;9.24;100.00
71770;BME280;66386;52.122;5.420;2024-01-30T09:49:08;102617.16;;;9.30;100.00
71770;BME280;66386;52.122;5.420;2024-01-30T09:51:35;102624.00;;;9.31;100.00
71770;BME280;66386;52.122;5.420;2024-01-30T09:54:02;102623.16;;;9.33;100.00
71770;BME280;66386;52.122;5.420;2024-01-30T09:56:29;102620.56;;;9.39;100.00
71770;BME280;66386;52.122;5.420;2024-01-30T09:58:56;102615.44;;;9.38;100.00
71770;BME280;66386;52.122;5.420;2024-01-30T10:01:23;102619.72;;;9.40;100.00
71770;BME280;66386;52.122;5.420;2024-01-30T10:03:50;102623.97;;;9.41;100.00
71770;BME280;66386;52.122;5.420;2024-01-30T10:06:19;102635.94;;;9.44;100.00
71770;BME280;66386;52.122;5.420;2024-01-30T10:08:50;102628.25;;;9.44;100.00
71770;BME280;66386;52.122;5.420;2024-01-30T10:11:16;102627.41;;;9.43;100.00
71770;BME280;66386;52.122;5.420;2024-01-30T10:13:43;102619.69;;;9.45;100.00
71770;BME280;66386;52.122;5.420;2024-01-30T10:16:09;102618.00;;;9.42;100.00
71770;BME280;66386;52.122;5.420;2024-01-30T10:18:36;102620.53;;;9.44;100.00
71770;BME280;66386;52.122;5.420;2024-01-30T10:21:02;102626.53;;;9.48;100.00
71770;BME280;66386;52.122;5.420;2024-01-30T10:23:33;102628.22;;;9.56;100.00
71770;BME280;66386;52.122;5.420;2024-01-30T10:26:03;102623.88;;;9.66;100.00
71770;BME280;66386;52.122;5.420;2024-01-30T10:28:30;102623.00;;;9.72;100.00
71770;BME280;66386;52.122;5.420;2024-01-30T10:30:58;102617.81;;;9.81;100.00
71770;BME280;66386;52.122;5.420;2024-01-30T10:33:31;102611.75;;;9.91;100.00
71770;BME280;66386;52.122;5.420;2024-01-30T10:36:03;102628.00;;;10.01;100.00
71770;BME280;66386;52.122;5.420;2024-01-30T10:38:32;102635.63;;;10.09;100.00
71770;BME280;66386;52.122;5.420;2024-01-30T10:41:00;102627.84;;;10.24;100.00
71770;BME280;66386;52.122;5.420;2024-01-30T10:43:31;102613.28;;;10.28;100.00
71770;BME280;66386;52.122;5.420;2024-01-30T10:46:19;102612.44;;;10.23;100.00
71770;BME280;66386;52.122;5.420;2024-01-30T10:49:12;102629.59;;;10.18;100.00
71770;BME280;66386;52.122;5.420;2024-01-30T10:51:40;102623.66;;;10.12;100.00
71770;BME280;66386;52.122;5.420;2024-01-30T10:54:09;102624.50;;;10.10;100.00
71770;BME280;66386;52.122;5.420;2024-01-30T10:56:36;102626.28;;;10.05;100.00
71770;BME280;66386;52.122;5.420;2024-01-30T10:59:03;102621.13;;;10.05;100.00
71770;BME280;66386;52.122;5.420;2024-01-30T11:01:30;102629.63;;;10.11;100.00
71770;BME280;66386;52.122;5.420;2024-01-30T11:04:00;102633.88;;;10.20;100.00
71770;BME280;66386;52.122;5.420;2024-01-30T11:06:27;102642.41;;;10.27;100.00
71770;BME280;66386;52.122;5.420;2024-01-30T11:09:04;102627.81;;;10.29;100.00
71770;BME280;66386;52.122;5.420;2024-01-30T11:11:56;102644.09;;;10.31;100.00
71770;BME280;66386;52.122;5.420;2024-01-30T11:14:30;102632.94;;;10.38;100.00
71770;BME280;66386;52.122;5.420;2024-01-30T11:16:58;102632.00;;;10.48;100.00
71770;BME280;66386;52.122;5.420;2024-01-30T11:19:26;102637.13;;;10.52;100.00
71770;BME280;66386;52.122;5.420;2024-01-30T11:21:54;102638.84;;;10.48;100.00
71770;BME280;66386;52.122;5.420;2024-01-30T11:24:21;102626.88;;;10.47;100.00
71770;BME280;66386;52.122;5.420;2024-01-30T11:26:57;102634.59;;;10.44;100.00
71770;BME280;66386;52.122;5.420;2024-01-30T11:29:28;102642.31;;;10.45;100.00
71770;BME280;66386;52.122;5.420;2024-01-30T11:31:56;102641.44;;;10.45;100.00
71770;BME280;66386;52.122;5.420;2024-01-30T11:34:24;102644.88;;;10.44;100.00
71770;BME280;66386;52.122;5.420;2024-01-30T11:36:53;102643.19;;;10.43;100.00
71770;BME280;66386;52.122;5.420;2024-01-30T11:39:25;102664.59;;;10.42;100.00
71770;BME280;66386;52.122;5.420;2024-01-30T11:41:55;102666.34;;;10.32;100.00
71770;BME280;66386;52.122;5.420;2024-01-30T11:44:22;102660.44;;;10.19;100.00
71770;BME280;66386;52.122;5.420;2024-01-30T11:46:55;102664.75;;;10.12;100.00
71770;BME280;66386;52.122;5.420;2024-01-30T11:49:23;102669.03;;;10.09;100.00
71770;BME280;66386;52.122;5.420;2024-01-30T11:51:50;102663.94;;;10.04;100.00
71770;BME280;66386;52.122;5.420;2024-01-30T11:54:17;102663.13;;;9.98;100.00
71770;BME280;66386;52.122;5.420;2024-01-30T11:56:44;102667.41;;;9.94;100.00
71770;BME280;66386;52.122;5.420;2024-01-30T12:01:51;102658.03;;;9.87;100.00
71770;BME280;66386;52.122;5.420;2024-01-30T12:04:18;102665.72;;;9.88;100.00
71770;BME280;66386;52.122;5.420;2024-01-30T12:06:45;102670.03;;;9.86;100.00
71770;BME280;66386;52.122;5.420;2024-01-30T12:09:12;102672.63;;;9.82;100.00
71770;BME280;66386;52.122;5.420;2024-01-30T12:11:46;102681.16;;;9.81;100.00
71770;BME280;66386;52.122;5.420;2024-01-30T12:14:13;102674.34;;;9.76;100.00
71770;BME280;66386;52.122;5.420;2024-01-30T12:16:40;102673.50;;;9.76;100.00
71770;BME280;66386;52.122;5.420;2024-01-30T12:19:08;102692.31;;;9.73;100.00
71770;BME280;66386;52.122;5.420;2024-01-30T12:21:40;102678.63;;;9.73;100.00
71770;BME280;66386;52.122;5.420;2024-01-30T12:24:07;102689.75;;;9.72;100.00
71770;BME280;66386;52.122;5.420;2024-01-30T12:26:34;102702.63;;;9.63;100.00
71770;BME280;66386;52.122;5.420;2024-01-30T12:29:03;102706.09;;;9.51;100.00
71770;BME280;66386;52.122;5.420;2024-01-30T12:31:32;102717.25;;;9.40;100.00
71770;BME280;66386;52.122;5.420;2024-01-30T12:36:40;102736.06;;;9.16;100.00
71770;BME280;66386;52.122;5.420;2024-01-30T12:39:12;102733.50;;;9.12;100.00
71770;BME280;66386;52.122;5.420;2024-01-30T12:41:41;102730.94;;;9.07;100.00
71770;BME280;66386;52.122;5.420;2024-01-30T12:44:17;102735.19;;;9.08;100.00
71770;BME280;66386;52.122;5.420;2024-01-30T12:46:43;102724.09;;;9.01;100.00
71770;BME280;66386;52.122;5.420;2024-01-30T12:49:12;102715.53;;;9.01;100.00
71770;BME280;66386;52.122;5.420;2024-01-30T12:51:39;102728.34;;;9.01;100.00
71770;BME280;66386;52.122;5.420;2024-01-30T12:54:06;102722.38;;;9.03;100.00
71770;BME280;66386;52.122;5.420;2024-01-30T12:56:33;102729.22;;;9.01;100.00
71770;BME280;66386;52.122;5.420;2024-01-30T12:59:02;102730.06;;;9.05;100.00
71770;BME280;66386;52.122;5.420;2024-01-30T13:01:29;102731.78;;;9.06;100.00